sensor_id;sensor_type;location;lat;lon;timestamp;P1;durP1;ratioP1;P2;durP2;ratioP2
10092;SDS011;5085;48.092;11.484;2023-02-05T00:02:10;8.30;;;4.60;;
10092;SDS011;5085;48.092;11.484;2023-02-05T00:04:37;7.07;;;3.95;;
10092;SDS011;5085;48.092;11.484;2023-02-05T00:07:03;7.15;;;3.47;;
10092;SDS011;5085;48.092;11.484;2023-02-05T00:09:30;7.82;;;4.05;;
10092;SDS011;5085;48.092;11.484;2023-02-05T00:11:57;6.30;;;3.58;;
10092;SDS011;5085;48.092;11.484;2023-02-05T00:14:24;6.70;;;3.80;;
10092;SDS011;5085;48.092;11.484;2023-02-05T00:16:50;5.85;;;3.53;;
10092;SDS011;5085;48.092;11.484;2023-02-05T00:19:17;6.40;;;3.75;;
10092;SDS011;5085;48.092;11.484;2023-02-05T00:21:43;8.13;;;3.53;;
10092;SDS011;5085;48.092;11.484;2023-02-05T00:24:10;5.78;;;3.42;;
10092;SDS011;5085;48.092;11.484;2023-02-05T00:26:36;5.50;;;2.95;;
10092;SDS011;5085;48.092;11.484;2023-02-05T00:29:02;5.93;;;3.20;;
10092;SDS011;5085;48.092;11.484;2023-02-05T00:31:29;5.15;;;2.95;;
10092;SDS011;5085;48.092;11.484;2023-02-05T00:33:55;4.78;;;2.72;;
10092;SDS011;5085;48.092;11.484;2023-02-05T00:36:22;5.05;;;3.10;;
10092;SDS011;5085;48.092;11.484;2023-02-05T00:38:49;4.47;;;2.65;;
10092;SDS011;5085;48.092;11.484;2023-02-05T00:41:15;4.28;;;2.67;;
10092;SDS011;5085;48.092;11.484;2023-02-05T00:43:42;7.95;;;2.78;;
10092;SDS011;5085;48.092;11.484;2023-02-05T00:46:09;8.57;;;3.22;;
10092;SDS011;5085;48.092;11.484;2023-02-05T00:48:36;3.28;;;2.35;;
10092;SDS011;5085;48.092;11.484;2023-02-05T00:51:03;7.30;;;3.28;;
10092;SDS011;5085;48.092;11.484;2023-02-05T00:53:29;6.15;;;2.65;;
10092;SDS011;5085;48.092;11.484;2023-02-05T00:55:55;5.07;;;2.80;;
10092;SDS011;5085;48.092;11.484;2023-02-05T00:58:21;5.18;;;3.05;;
10092;SDS011;5085;48.092;11.484;2023-02-05T01:00:48;5.97;;;3.03;;
10092;SDS011;5085;48.092;11.484;2023-02-05T01:03:14;4.47;;;2.88;;
10092;SDS011;5085;48.092;11.484;2023-02-05T01:05:41;3.88;;;2.40;;
10092;SDS011;5085;48.092;11.484;2023-02-05T01:08:08;3.95;;;2.22;;
10092;SDS011;5085;48.092;11.484;2023-02-05T01:10:35;3.67;;;2.22;;
10092;SDS011;5085;48.092;11.484;2023-02-05T01:13:02;3.50;;;2.20;;
10092;SDS011;5085;48.092;11.484;2023-02-05T01:15:29;3.33;;;2.20;;
10092;SDS011;5085;48.092;11.484;2023-02-05T01:17:56;4.00;;;2.55;;
10092;SDS011;5085;48.092;11.484;2023-02-05T01:20:23;5.38;;;2.00;;
10092;SDS011;5085;48.092;11.484;2023-02-05T01:22:50;3.30;;;2.05;;
10092;SDS011;5085;48.092;11.484;2023-02-05T01:25:16;3.50;;;2.15;;
10092;SDS011;5085;48.092;11.484;2023-02-05T01:27:43;3.33;;;2.10;;
10092;SDS011;5085;48.092;11.484;2023-02-05T01:30:09;4.25;;;2.55;;
10092;SDS011;5085;48.092;11.484;2023-02-05T01:32:39;4.28;;;2.45;;
10092;SDS011;5085;48.092;11.484;2023-02-05T01:35:06;6.30;;;2.17;;
10092;SDS011;5085;48.092;11.484;2023-02-05T01:37:33;3.72;;;2.13;;
10092;SDS011;5085;48.092;11.484;2023-02-05T01:39:59;3.92;;;1.80;;
10092;SDS011;5085;48.092;11.484;2023-02-05T01:42:29;3.42;;;1.65;;
10092;SDS011;5085;48.092;11.484;2023-02-05T01:50:14;4.43;;;1.88;;
10092;SDS011;5085;48.092;11.484;2023-02-05T01:52:43;5.50;;;1.88;;
10092;SDS011;5085;48.092;11.484;2023-02-05T01:55:10;6.40;;;2.30;;
10092;SDS011;5085;48.092;11.484;2023-02-05T01:57:37;4.78;;;2.05;;
10092;SDS011;5085;48.092;11.484;2023-02-05T02:00:04;3.63;;;2.30;;
10092;SDS011;5085;48.092;11.484;2023-02-05T02:02:40;4.00;;;2.28;;
10092;SDS011;5085;48.092;11.484;2023-02-05T02:05:11;3.55;;;2.08;;
10092;SDS011;5085;48.092;11.484;2023-02-05T02:07:38;3.45;;;2.20;;
10092;SDS011;5085;48.092;11.484;2023-02-05T02:10:06;3.35;;;2.10;;
10092;SDS011;5085;48.092;11.484;2023-02-05T02:12:35;4.30;;;1.85;;
10092;SDS011;5085;48.092;11.484;2023-02-05T02:15:05;5.03;;;2.60;;
10092;SDS011;5085;48.092;11.484;2023-02-05T02:17:38;4.65;;;2.30;;
10092;SDS011;5085;48.092;11.484;2023-02-05T02:22:39;4.90;;;2.47;;
10092;SDS011;5085;48.092;11.484;2023-02-05T02:28:27;3.25;;;2.00;;
10092;SDS011;5085;48.092;11.484;2023-02-05T02:31:08;4.90;;;2.22;;
10092;SDS011;5085;48.092;11.484;2023-02-05T02:33:45;5.07;;;2.30;;
10092;SDS011;5085;48.092;11.484;2023-02-05T02:36:17;2.58;;;1.70;;
10092;SDS011;5085;48.092;11.484;2023-02-05T02:38:52;4.72;;;1.88;;
10092;SDS011;5085;48.092;11.484;2023-02-05T02:41:27;4.95;;;1.73;;
10092;SDS011;5085;48.092;11.484;2023-02-05T02:44:04;3.17;;;1.58;;
10092;SDS011;5085;48.092;11.484;2023-02-05T02:46:39;5.38;;;2.10;;
10092;SDS011;5085;48.092;11.484;2023-02-05T02:52:04;2.97;;;1.73;;
10092;SDS011;5085;48.092;11.484;2023-02-05T02:54:33;3.38;;;1.80;;
10092;SDS011;5085;48.092;11.484;2023-02-05T02:57:02;3.38;;;2.03;;
10092;SDS011;5085;48.092;11.484;2023-02-05T02:59:32;4.88;;;2.15;;
10092;SDS011;5085;48.092;11.484;2023-02-05T03:02:03;5.00;;;2.10;;
10092;SDS011;5085;48.092;11.484;2023-02-05T03:04:32;2.90;;;2.08;;
10092;SDS011;5085;48.092;11.484;2023-02-05T03:07:12;3.92;;;2.25;;
10092;SDS011;5085;48.092;11.484;2023-02-05T03:12:17;4.35;;;2.22;;
10092;SDS011;5085;48.092;11.484;2023-02-05T03:14:43;2.35;;;1.40;;
10092;SDS011;5085;48.092;11.484;2023-02-05T03:17:09;4.60;;;1.73;;
10092;SDS011;5085;48.092;11.484;2023-02-05T03:19:43;3.70;;;1.95;;
10092;SDS011;5085;48.092;11.484;2023-02-05T03:22:11;2.53;;;1.65;;
10092;SDS011;5085;48.092;11.484;2023-02-05T03:24:37;3.10;;;1.58;;
10092;SDS011;5085;48.092;11.484;2023-02-05T03:27:04;3.63;;;1.98;;
10092;SDS011;5085;48.092;11.484;2023-02-05T03:29:31;2.53;;;1.75;;
10092;SDS011;5085;48.092;11.484;2023-02-05T03:35:14;2.83;;;1.75;;
10092;SDS011;5085;48.092;11.484;2023-02-05T03:40:48;3.58;;;2.28;;
10092;SDS011;5085;48.092;11.484;2023-02-05T03:43:26;4.55;;;1.95;;
10092;SDS011;5085;48.092;11.484;2023-02-05T03:46:16;2.47;;;1.33;;
10092;SDS011;5085;48.092;11.484;2023-02-05T03:52:02;3.28;;;1.70;;
10092;SDS011;5085;48.092;11.484;2023-02-05T03:54:43;5.13;;;2.17;;
10092;SDS011;5085;48.092;11.484;2023-02-05T03:57:23;3.47;;;1.45;;
10092;SDS011;5085;48.092;11.484;2023-02-05T04:00:10;3.30;;;2.28;;
10092;SDS011;5085;48.092;11.484;2023-02-05T04:02:41;3.70;;;2.25;;
10092;SDS011;5085;48.092;11.484;2023-02-05T04:05:11;3.58;;;2.58;;
10092;SDS011;5085;48.092;11.484;2023-02-05T04:07:38;4.57;;;2.20;;
10092;SDS011;5085;48.092;11.484;2023-02-05T04:10:04;3.88;;;1.77;;
10092;SDS011;5085;48.092;11.484;2023-02-05T04:12:31;6.05;;;2.10;;
10092;SDS011;5085;48.092;11.484;2023-02-05T04:14:57;4.70;;;2.38;;
10092;SDS011;5085;48.092;11.484;2023-02-05T04:17:23;2.20;;;1.52;;
10092;SDS011;5085;48.092;11.484;2023-02-05T04:19:49;3.58;;;2.03;;
10092;SDS011;5085;48.092;11.484;2023-02-05T04:22:17;2.90;;;1.77;;
10092;SDS011;5085;48.092;11.484;2023-02-05T04:24:45;4.32;;;2.15;;
10092;SDS011;5085;48.092;11.484;2023-02-05T04:27:16;2.55;;;1.60;;
10092;SDS011;5085;48.092;11.484;2023-02-05T04:29:42;3.28;;;1.50;;
10092;SDS011;5085;48.092;11.484;2023-02-05T04:32:09;2.92;;;2.00;;
10092;SDS011;5085;48.092;11.484;2023-02-05T04:34:35;3.85;;;1.92;;
10092;SDS011;5085;48.092;11.484;2023-02-05T04:37:02;3.90;;;2.00;;
10092;SDS011;5085;48.092;11.484;2023-02-05T04:39:29;2.83;;;1.38;;
10092;SDS011;5085;48.092;11.484;2023-02-05T04:41:55;3.17;;;1.92;;
10092;SDS011;5085;48.092;11.484;2023-02-05T04:44:21;3.30;;;2.05;;
10092;SDS011;5085;48.092;11.484;2023-02-05T04:46:47;3.17;;;2.05;;
10092;SDS011;5085;48.092;11.484;2023-02-05T04:49:13;4.13;;;2.05;;
10092;SDS011;5085;48.092;11.484;2023-02-05T04:51:39;3.88;;;1.92;;
10092;SDS011;5085;48.092;11.484;2023-02-05T04:54:05;3.63;;;1.88;;
10092;SDS011;5085;48.092;11.484;2023-02-05T04:56:31;2.95;;;2.10;;
10092;SDS011;5085;48.092;11.484;2023-02-05T04:58:57;3.55;;;1.92;;
10092;SDS011;5085;48.092;11.484;2023-02-05T05:01:23;4.05;;;1.80;;
10092;SDS011;5085;48.092;11.484;2023-02-05T05:03:49;4.68;;;2.25;;
10092;SDS011;5085;48.092;11.484;2023-02-05T05:06:16;3.92;;;1.95;;
10092;SDS011;5085;48.092;11.484;2023-02-05T05:08:43;6.18;;;2.15;;
10092;SDS011;5085;48.092;11.484;2023-02-05T05:11:13;9.05;;;3.08;;
10092;SDS011;5085;48.092;11.484;2023-02-05T05:13:41;7.05;;;2.53;;
10092;SDS011;5085;48.092;11.484;2023-02-05T05:16:08;3.40;;;2.00;;
10092;SDS011;5085;48.092;11.484;2023-02-05T05:18:35;7.47;;;2.85;;
10092;SDS011;5085;48.092;11.484;2023-02-05T05:21:02;9.10;;;2.50;;
10092;SDS011;5085;48.092;11.484;2023-02-05T05:23:28;6.03;;;2.35;;
10092;SDS011;5085;48.092;11.484;2023-02-05T05:25:55;9.00;;;3.22;;
10092;SDS011;5085;48.092;11.484;2023-02-05T05:28:21;7.55;;;2.70;;
10092;SDS011;5085;48.092;11.484;2023-02-05T05:30:47;3.80;;;2.22;;
10092;SDS011;5085;48.092;11.484;2023-02-05T05:33:13;4.30;;;2.50;;
10092;SDS011;5085;48.092;11.484;2023-02-05T05:35:39;4.40;;;2.25;;
10092;SDS011;5085;48.092;11.484;2023-02-05T05:38:05;8.05;;;2.55;;
10092;SDS011;5085;48.092;11.484;2023-02-05T05:40:31;7.43;;;3.15;;
10092;SDS011;5085;48.092;11.484;2023-02-05T05:43:17;7.15;;;3.05;;
10092;SDS011;5085;48.092;11.484;2023-02-05T05:46:04;8.63;;;3.95;;
10092;SDS011;5085;48.092;11.484;2023-02-05T05:48:31;5.55;;;3.08;;
10092;SDS011;5085;48.092;11.484;2023-02-05T05:50:57;5.97;;;2.15;;
10092;SDS011;5085;48.092;11.484;2023-02-05T05:53:23;5.88;;;2.92;;
10092;SDS011;5085;48.092;11.484;2023-02-05T05:55:49;5.85;;;2.20;;
10092;SDS011;5085;48.092;11.484;2023-02-05T05:58:15;7.63;;;2.88;;
10092;SDS011;5085;48.092;11.484;2023-02-05T06:00:41;4.60;;;2.95;;
10092;SDS011;5085;48.092;11.484;2023-02-05T06:03:08;4.13;;;2.42;;
10092;SDS011;5085;48.092;11.484;2023-02-05T06:05:35;6.10;;;2.95;;
10092;SDS011;5085;48.092;11.484;2023-02-05T06:08:01;3.53;;;2.22;;
10092;SDS011;5085;48.092;11.484;2023-02-05T06:10:27;6.32;;;2.55;;
10092;SDS011;5085;48.092;11.484;2023-02-05T06:12:53;2.80;;;1.88;;
10092;SDS011;5085;48.092;11.484;2023-02-05T06:15:19;7.95;;;1.80;;
10092;SDS011;5085;48.092;11.484;2023-02-05T06:17:46;5.22;;;2.92;;
10092;SDS011;5085;48.092;11.484;2023-02-05T06:20:12;3.95;;;2.30;;
10092;SDS011;5085;48.092;11.484;2023-02-05T06:22:38;3.33;;;2.17;;
10092;SDS011;5085;48.092;11.484;2023-02-05T06:25:04;3.53;;;2.78;;
10092;SDS011;5085;48.092;11.484;2023-02-05T06:27:31;4.03;;;2.50;;
10092;SDS011;5085;48.092;11.484;2023-02-05T06:29:57;4.50;;;2.40;;
10092;SDS011;5085;48.092;11.484;2023-02-05T06:32:23;2.45;;;1.73;;
10092;SDS011;5085;48.092;11.484;2023-02-05T06:34:49;5.40;;;2.28;;
10092;SDS011;5085;48.092;11.484;2023-02-05T06:37:15;2.67;;;1.88;;
10092;SDS011;5085;48.092;11.484;2023-02-05T06:39:41;2.97;;;1.98;;
10092;SDS011;5085;48.092;11.484;2023-02-05T06:42:08;3.78;;;1.85;;
10092;SDS011;5085;48.092;11.484;2023-02-05T06:44:34;3.42;;;1.88;;
10092;SDS011;5085;48.092;11.484;2023-02-05T06:47:00;3.72;;;2.15;;
10092;SDS011;5085;48.092;11.484;2023-02-05T06:49:26;5.65;;;2.00;;
10092;SDS011;5085;48.092;11.484;2023-02-05T06:51:52;3.13;;;1.83;;
10092;SDS011;5085;48.092;11.484;2023-02-05T06:54:19;3.35;;;2.13;;
10092;SDS011;5085;48.092;11.484;2023-02-05T06:56:45;5.95;;;3.03;;
10092;SDS011;5085;48.092;11.484;2023-02-05T06:59:12;3.70;;;1.70;;
10092;SDS011;5085;48.092;11.484;2023-02-05T07:01:38;4.03;;;2.08;;
10092;SDS011;5085;48.092;11.484;2023-02-05T07:04:04;2.83;;;1.83;;
10092;SDS011;5085;48.092;11.484;2023-02-05T07:06:30;5.53;;;2.20;;
10092;SDS011;5085;48.092;11.484;2023-02-05T07:08:56;4.22;;;2.20;;
10092;SDS011;5085;48.092;11.484;2023-02-05T07:11:23;3.42;;;2.05;;
10092;SDS011;5085;48.092;11.484;2023-02-05T07:13:50;3.88;;;2.15;;
10092;SDS011;5085;48.092;11.484;2023-02-05T07:16:16;2.78;;;1.77;;
10092;SDS011;5085;48.092;11.484;2023-02-05T07:18:42;3.35;;;1.70;;
10092;SDS011;5085;48.092;11.484;2023-02-05T07:21:08;4.47;;;2.40;;
10092;SDS011;5085;48.092;11.484;2023-02-05T07:23:37;4.30;;;1.88;;
10092;SDS011;5085;48.092;11.484;2023-02-05T07:26:14;3.60;;;1.50;;
10092;SDS011;5085;48.092;11.484;2023-02-05T07:28:41;4.20;;;1.88;;
10092;SDS011;5085;48.092;11.484;2023-02-05T07:31:09;2.30;;;1.13;;
10092;SDS011;5085;48.092;11.484;2023-02-05T07:33:40;2.97;;;1.55;;
10092;SDS011;5085;48.092;11.484;2023-02-05T07:36:08;3.80;;;1.48;;
10092;SDS011;5085;48.092;11.484;2023-02-05T07:38:36;2.40;;;1.40;;
10092;SDS011;5085;48.092;11.484;2023-02-05T07:41:03;2.30;;;1.42;;
10092;SDS011;5085;48.092;11.484;2023-02-05T07:43:29;3.00;;;1.38;;
10092;SDS011;5085;48.092;11.484;2023-02-05T07:45:57;5.68;;;2.00;;
10092;SDS011;5085;48.092;11.484;2023-02-05T07:48:24;3.03;;;1.90;;
10092;SDS011;5085;48.092;11.484;2023-02-05T07:50:51;2.33;;;1.70;;
10092;SDS011;5085;48.092;11.484;2023-02-05T07:53:18;3.60;;;2.25;;
10092;SDS011;5085;48.092;11.484;2023-02-05T07:55:44;3.65;;;2.28;;
10092;SDS011;5085;48.092;11.484;2023-02-05T07:58:11;4.20;;;2.33;;
10092;SDS011;5085;48.092;11.484;2023-02-05T08:00:37;3.47;;;2.15;;
10092;SDS011;5085;48.092;11.484;2023-02-05T08:03:03;2.25;;;1.60;;
10092;SDS011;5085;48.092;11.484;2023-02-05T08:05:29;2.03;;;1.60;;
10092;SDS011;5085;48.092;11.484;2023-02-05T08:07:55;2.42;;;1.55;;
10092;SDS011;5085;48.092;11.484;2023-02-05T08:10:21;4.05;;;2.17;;
10092;SDS011;5085;48.092;11.484;2023-02-05T08:12:48;3.42;;;1.67;;
10092;SDS011;5085;48.092;11.484;2023-02-05T08:15:14;2.90;;;1.90;;
10092;SDS011;5085;48.092;11.484;2023-02-05T08:17:40;3.40;;;1.77;;
10092;SDS011;5085;48.092;11.484;2023-02-05T08:20:06;2.55;;;1.75;;
10092;SDS011;5085;48.092;11.484;2023-02-05T08:22:33;5.03;;;2.10;;
10092;SDS011;5085;48.092;11.484;2023-02-05T08:25:00;3.22;;;2.15;;
10092;SDS011;5085;48.092;11.484;2023-02-05T08:27:27;2.70;;;1.70;;
10092;SDS011;5085;48.092;11.484;2023-02-05T08:29:53;3.35;;;2.15;;
10092;SDS011;5085;48.092;11.484;2023-02-05T08:32:19;7.63;;;2.40;;
10092;SDS011;5085;48.092;11.484;2023-02-05T08:34:45;2.53;;;1.77;;
10092;SDS011;5085;48.092;11.484;2023-02-05T08:37:11;4.20;;;2.25;;
10092;SDS011;5085;48.092;11.484;2023-02-05T08:39:37;2.97;;;1.88;;
10092;SDS011;5085;48.092;11.484;2023-02-05T08:42:03;3.50;;;1.98;;
10092;SDS011;5085;48.092;11.484;2023-02-05T08:44:29;3.53;;;2.10;;
10092;SDS011;5085;48.092;11.484;2023-02-05T08:46:55;4.05;;;2.30;;
10092;SDS011;5085;48.092;11.484;2023-02-05T08:49:21;3.72;;;2.47;;
10092;SDS011;5085;48.092;11.484;2023-02-05T08:51:47;4.10;;;1.95;;
10092;SDS011;5085;48.092;11.484;2023-02-05T08:54:13;4.60;;;2.85;;
10092;SDS011;5085;48.092;11.484;2023-02-05T08:56:40;5.15;;;2.90;;
10092;SDS011;5085;48.092;11.484;2023-02-05T08:59:08;3.60;;;2.30;;
10092;SDS011;5085;48.092;11.484;2023-02-05T09:01:34;4.82;;;2.80;;
10092;SDS011;5085;48.092;11.484;2023-02-05T09:04:02;4.30;;;2.90;;
10092;SDS011;5085;48.092;11.484;2023-02-05T09:06:29;3.13;;;2.22;;
10092;SDS011;5085;48.092;11.484;2023-02-05T09:08:55;5.53;;;2.70;;
10092;SDS011;5085;48.092;11.484;2023-02-05T09:11:21;4.53;;;2.63;;
10092;SDS011;5085;48.092;11.484;2023-02-05T09:13:48;4.22;;;2.45;;
10092;SDS011;5085;48.092;11.484;2023-02-05T09:16:14;4.97;;;3.03;;
10092;SDS011;5085;48.092;11.484;2023-02-05T09:18:40;4.22;;;2.60;;
10092;SDS011;5085;48.092;11.484;2023-02-05T09:21:07;3.92;;;2.95;;
10092;SDS011;5085;48.092;11.484;2023-02-05T09:23:34;4.53;;;2.78;;
10092;SDS011;5085;48.092;11.484;2023-02-05T09:26:00;4.15;;;2.78;;
10092;SDS011;5085;48.092;11.484;2023-02-05T09:28:26;4.55;;;3.00;;
10092;SDS011;5085;48.092;11.484;2023-02-05T09:30:52;4.90;;;2.90;;
10092;SDS011;5085;48.092;11.484;2023-02-05T09:33:18;6.28;;;3.25;;
10092;SDS011;5085;48.092;11.484;2023-02-05T09:35:44;4.95;;;3.22;;
10092;SDS011;5085;48.092;11.484;2023-02-05T09:38:14;7.90;;;3.38;;
10092;SDS011;5085;48.092;11.484;2023-02-05T09:40:43;5.30;;;3.05;;
10092;SDS011;5085;48.092;11.484;2023-02-05T09:49:06;6.60;;;3.53;;
10092;SDS011;5085;48.092;11.484;2023-02-05T09:51:43;5.22;;;3.40;;
10092;SDS011;5085;48.092;11.484;2023-02-05T09:54:14;6.15;;;3.33;;
10092;SDS011;5085;48.092;11.484;2023-02-05T09:56:43;5.82;;;3.75;;
10092;SDS011;5085;48.092;11.484;2023-02-05T09:59:13;5.88;;;3.63;;
10092;SDS011;5085;48.092;11.484;2023-02-05T10:01:44;6.10;;;3.65;;
10092;SDS011;5085;48.092;11.484;2023-02-05T10:04:22;4.97;;;3.53;;
10092;SDS011;5085;48.092;11.484;2023-02-05T10:06:59;5.60;;;3.38;;
10092;SDS011;5085;48.092;11.484;2023-02-05T10:18:03;3.92;;;2.00;;
10092;SDS011;5085;48.092;11.484;2023-02-05T10:20:57;4.22;;;2.20;;
10092;SDS011;5085;48.092;11.484;2023-02-05T10:26:32;3.67;;;1.80;;
10092;SDS011;5085;48.092;11.484;2023-02-05T10:29:11;4.20;;;1.50;;
10092;SDS011;5085;48.092;11.484;2023-02-05T10:35:02;6.78;;;2.00;;
10092;SDS011;5085;48.092;11.484;2023-02-05T10:37:35;4.45;;;2.17;;
10092;SDS011;5085;48.092;11.484;2023-02-05T10:40:11;5.35;;;2.33;;
10092;SDS011;5085;48.092;11.484;2023-02-05T10:42:40;4.93;;;2.25;;
10092;SDS011;5085;48.092;11.484;2023-02-05T10:47:48;5.03;;;2.55;;
10092;SDS011;5085;48.092;11.484;2023-02-05T10:55:51;4.32;;;2.00;;
10092;SDS011;5085;48.092;11.484;2023-02-05T10:58:30;5.32;;;2.38;;
10092;SDS011;5085;48.092;11.484;2023-02-05T11:01:00;5.20;;;1.80;;
10092;SDS011;5085;48.092;11.484;2023-02-05T11:03:27;6.18;;;1.77;;
10092;SDS011;5085;48.092;11.484;2023-02-05T11:05:53;5.38;;;1.63;;
10092;SDS011;5085;48.092;11.484;2023-02-05T11:08:29;3.88;;;1.70;;
10092;SDS011;5085;48.092;11.484;2023-02-05T11:11:19;4.00;;;1.30;;
10092;SDS011;5085;48.092;11.484;2023-02-05T11:13:59;4.97;;;1.38;;
10092;SDS011;5085;48.092;11.484;2023-02-05T11:16:37;6.80;;;1.40;;
10092;SDS011;5085;48.092;11.484;2023-02-05T11:19:14;5.00;;;1.30;;
10092;SDS011;5085;48.092;11.484;2023-02-05T11:21:50;5.53;;;1.10;;
10092;SDS011;5085;48.092;11.484;2023-02-05T11:24:31;2.47;;;1.17;;
10092;SDS011;5085;48.092;11.484;2023-02-05T11:29:48;8.25;;;1.83;;
10092;SDS011;5085;48.092;11.484;2023-02-05T11:32:21;6.13;;;1.35;;
10092;SDS011;5085;48.092;11.484;2023-02-05T11:35:06;5.47;;;1.42;;
10092;SDS011;5085;48.092;11.484;2023-02-05T11:37:47;3.65;;;1.00;;
10092;SDS011;5085;48.092;11.484;2023-02-05T11:40:27;3.30;;;1.00;;
10092;SDS011;5085;48.092;11.484;2023-02-05T11:42:59;5.45;;;1.20;;
10092;SDS011;5085;48.092;11.484;2023-02-05T11:45:26;3.42;;;1.15;;
10092;SDS011;5085;48.092;11.484;2023-02-05T11:47:53;7.45;;;1.35;;
10092;SDS011;5085;48.092;11.484;2023-02-05T11:50:22;4.78;;;1.40;;
10092;SDS011;5085;48.092;11.484;2023-02-05T11:52:50;5.72;;;1.38;;
10092;SDS011;5085;48.092;11.484;2023-02-05T11:55:24;4.68;;;1.50;;
10092;SDS011;5085;48.092;11.484;2023-02-05T11:58:37;3.92;;;1.20;;
10092;SDS011;5085;48.092;11.484;2023-02-05T12:00:50;2.92;;;1.55;;
10092;SDS011;5085;48.092;11.484;2023-02-05T12:03:26;7.63;;;1.60;;
10092;SDS011;5085;48.092;11.484;2023-02-05T12:05:59;6.10;;;1.02;;
10092;SDS011;5085;48.092;11.484;2023-02-05T12:08:43;7.18;;;1.58;;
10092;SDS011;5085;48.092;11.484;2023-02-05T12:19:50;5.68;;;1.40;;
10092;SDS011;5085;48.092;11.484;2023-02-05T12:22:37;4.68;;;1.30;;
10092;SDS011;5085;48.092;11.484;2023-02-05T12:25:38;3.13;;;1.42;;
10092;SDS011;5085;48.092;11.484;2023-02-05T12:31:43;5.07;;;1.77;;
10092;SDS011;5085;48.092;11.484;2023-02-05T12:34:23;6.63;;;1.65;;
10092;SDS011;5085;48.092;11.484;2023-02-05T12:36:57;4.50;;;1.30;;
10092;SDS011;5085;48.092;11.484;2023-02-05T12:42:12;5.07;;;1.27;;
10092;SDS011;5085;48.092;11.484;2023-02-05T12:53:18;8.50;;;1.88;;
10092;SDS011;5085;48.092;11.484;2023-02-05T12:56:05;10.07;;;1.70;;
10092;SDS011;5085;48.092;11.484;2023-02-05T12:58:51;5.53;;;1.73;;
10092;SDS011;5085;48.092;11.484;2023-02-05T13:01:22;7.07;;;1.80;;
10092;SDS011;5085;48.092;11.484;2023-02-05T13:03:54;6.97;;;1.55;;
10092;SDS011;5085;48.092;11.484;2023-02-05T13:09:04;9.38;;;1.90;;
10092;SDS011;5085;48.092;11.484;2023-02-05T13:11:55;5.43;;;1.33;;
10092;SDS011;5085;48.092;11.484;2023-02-05T13:14:25;4.65;;;1.63;;
10092;SDS011;5085;48.092;11.484;2023-02-05T13:17:05;6.43;;;1.50;;
10092;SDS011;5085;48.092;11.484;2023-02-05T13:22:34;6.85;;;2.08;;
10092;SDS011;5085;48.092;11.484;2023-02-05T13:31:24;4.95;;;2.08;;
10092;SDS011;5085;48.092;11.484;2023-02-05T13:33:55;3.25;;;1.80;;
10092;SDS011;5085;48.092;11.484;2023-02-05T13:36:31;9.77;;;2.58;;
10092;SDS011;5085;48.092;11.484;2023-02-05T13:39:35;6.78;;;2.00;;
10092;SDS011;5085;48.092;11.484;2023-02-05T13:47:52;9.35;;;2.17;;
10092;SDS011;5085;48.092;11.484;2023-02-05T13:53:48;7.43;;;2.08;;
10092;SDS011;5085;48.092;11.484;2023-02-05T13:59:35;6.20;;;2.25;;
10092;SDS011;5085;48.092;11.484;2023-02-05T14:02:09;6.88;;;2.33;;
10092;SDS011;5085;48.092;11.484;2023-02-05T14:04:53;8.30;;;2.65;;
10092;SDS011;5085;48.092;11.484;2023-02-05T14:07:23;8.18;;;2.25;;
10092;SDS011;5085;48.092;11.484;2023-02-05T14:09:55;6.65;;;2.47;;
10092;SDS011;5085;48.092;11.484;2023-02-05T14:12:28;5.38;;;2.45;;
10092;SDS011;5085;48.092;11.484;2023-02-05T14:22:50;10.88;;;3.10;;
10092;SDS011;5085;48.092;11.484;2023-02-05T14:30:34;7.57;;;2.65;;
10092;SDS011;5085;48.092;11.484;2023-02-05T14:33:06;9.93;;;2.58;;
10092;SDS011;5085;48.092;11.484;2023-02-05T14:38:40;7.88;;;2.22;;
10092;SDS011;5085;48.092;11.484;2023-02-05T14:41:13;8.15;;;2.10;;
10092;SDS011;5085;48.092;11.484;2023-02-05T14:43:44;4.93;;;2.28;;
10092;SDS011;5085;48.092;11.484;2023-02-05T14:46:43;9.20;;;2.67;;
10092;SDS011;5085;48.092;11.484;2023-02-05T14:49:39;5.75;;;2.30;;
10092;SDS011;5085;48.092;11.484;2023-02-05T14:52:21;5.57;;;2.38;;
10092;SDS011;5085;48.092;11.484;2023-02-05T15:05:35;5.47;;;2.55;;
10092;SDS011;5085;48.092;11.484;2023-02-05T15:08:11;8.43;;;2.75;;
10092;SDS011;5085;48.092;11.484;2023-02-05T15:10:44;5.63;;;2.20;;
10092;SDS011;5085;48.092;11.484;2023-02-05T15:13:15;11.30;;;2.30;;
10092;SDS011;5085;48.092;11.484;2023-02-05T15:16:05;10.25;;;2.58;;
10092;SDS011;5085;48.092;11.484;2023-02-05T15:18:51;10.02;;;2.50;;
10092;SDS011;5085;48.092;11.484;2023-02-05T15:21:34;5.40;;;2.15;;
10092;SDS011;5085;48.092;11.484;2023-02-05T15:24:12;5.82;;;2.03;;
10092;SDS011;5085;48.092;11.484;2023-02-05T15:26:45;6.07;;;2.90;;
10092;SDS011;5085;48.092;11.484;2023-02-05T15:29:17;5.82;;;3.03;;
10092;SDS011;5085;48.092;11.484;2023-02-05T15:31:49;6.15;;;2.70;;
10092;SDS011;5085;48.092;11.484;2023-02-05T15:36:55;13.20;;;3.53;;
10092;SDS011;5085;48.092;11.484;2023-02-05T15:42:20;7.22;;;2.40;;
10092;SDS011;5085;48.092;11.484;2023-02-05T15:44:55;10.95;;;3.53;;
10092;SDS011;5085;48.092;11.484;2023-02-05T15:47:22;6.28;;;3.28;;
10092;SDS011;5085;48.092;11.484;2023-02-05T15:49:52;7.47;;;3.50;;
10092;SDS011;5085;48.092;11.484;2023-02-05T15:52:23;10.85;;;3.88;;
10092;SDS011;5085;48.092;11.484;2023-02-05T15:54:54;16.60;;;3.72;;
10092;SDS011;5085;48.092;11.484;2023-02-05T15:57:26;7.60;;;3.05;;
10092;SDS011;5085;48.092;11.484;2023-02-05T15:59:55;11.07;;;3.65;;
10092;SDS011;5085;48.092;11.484;2023-02-05T16:02:26;16.73;;;3.85;;
10092;SDS011;5085;48.092;11.484;2023-02-05T16:04:55;6.88;;;3.45;;
10092;SDS011;5085;48.092;11.484;2023-02-05T16:07:27;7.45;;;3.55;;
10092;SDS011;5085;48.092;11.484;2023-02-05T16:10:14;12.70;;;3.38;;
10092;SDS011;5085;48.092;11.484;2023-02-05T16:18:34;11.30;;;3.85;;
10092;SDS011;5085;48.092;11.484;2023-02-05T16:24:19;9.88;;;4.35;;
10092;SDS011;5085;48.092;11.484;2023-02-05T16:26:56;6.10;;;3.03;;
10092;SDS011;5085;48.092;11.484;2023-02-05T16:29:30;12.48;;;3.80;;
10092;SDS011;5085;48.092;11.484;2023-02-05T16:32:05;15.82;;;3.75;;
10092;SDS011;5085;48.092;11.484;2023-02-05T16:34:39;11.23;;;3.75;;
10092;SDS011;5085;48.092;11.484;2023-02-05T16:37:06;11.40;;;4.20;;
10092;SDS011;5085;48.092;11.484;2023-02-05T16:39:36;13.48;;;3.92;;
10092;SDS011;5085;48.092;11.484;2023-02-05T16:42:08;9.35;;;3.90;;
10092;SDS011;5085;48.092;11.484;2023-02-05T16:45:04;9.68;;;3.97;;
10092;SDS011;5085;48.092;11.484;2023-02-05T16:47:51;6.80;;;3.22;;
10092;SDS011;5085;48.092;11.484;2023-02-05T16:50:46;11.77;;;3.53;;
10092;SDS011;5085;48.092;11.484;2023-02-05T16:55:46;6.93;;;3.17;;
10092;SDS011;5085;48.092;11.484;2023-02-05T16:58:15;13.50;;;4.13;;
10092;SDS011;5085;48.092;11.484;2023-02-05T17:00:53;12.55;;;4.03;;
10092;SDS011;5085;48.092;11.484;2023-02-05T17:03:21;7.13;;;3.20;;
10092;SDS011;5085;48.092;11.484;2023-02-05T17:05:56;8.95;;;4.13;;
10092;SDS011;5085;48.092;11.484;2023-02-05T17:08:29;12.88;;;3.60;;
10092;SDS011;5085;48.092;11.484;2023-02-05T17:10:59;16.58;;;4.18;;
10092;SDS011;5085;48.092;11.484;2023-02-05T17:13:40;11.73;;;4.13;;
10092;SDS011;5085;48.092;11.484;2023-02-05T17:16:26;10.15;;;3.95;;
10092;SDS011;5085;48.092;11.484;2023-02-05T17:18:55;9.32;;;3.72;;
10092;SDS011;5085;48.092;11.484;2023-02-05T17:21:34;10.88;;;3.70;;
10092;SDS011;5085;48.092;11.484;2023-02-05T17:24:02;13.85;;;4.80;;
10092;SDS011;5085;48.092;11.484;2023-02-05T17:26:35;10.75;;;5.10;;
10092;SDS011;5085;48.092;11.484;2023-02-05T17:29:04;10.85;;;4.53;;
10092;SDS011;5085;48.092;11.484;2023-02-05T17:31:34;12.10;;;5.15;;
10092;SDS011;5085;48.092;11.484;2023-02-05T17:34:01;10.30;;;4.55;;
10092;SDS011;5085;48.092;11.484;2023-02-05T17:36:27;10.27;;;4.28;;